sensor_id;sensor_type;location;lat;lon;timestamp;pressure;altitude;pressure_sealevel;temperature
70969;BMP280;58630;43.022;25.100;2023-07-13T00:02:19;;;;30.20
70969;BMP280;58630;43.022;25.100;2023-07-13T00:04:44;;;;30.20
70969;BMP280;58630;43.022;25.100;2023-07-13T00:07:10;;;;30.10
70969;BMP280;58630;43.022;25.100;2023-07-13T00:09:35;;;;30.00
70969;BMP280;58630;43.022;25.100;2023-07-13T00:12:01;;;;29.90
70969;BMP280;58630;43.022;25.100;2023-07-13T00:14:28;;;;30.00
70969;BMP280;58630;43.022;25.100;2023-07-13T00:16:54;;;;30.00
70969;BMP280;58630;43.022;25.100;2023-07-13T00:19:19;;;;30.00
70969;BMP280;58630;43.022;25.100;2023-07-13T00:21:45;;;;29.90
70969;BMP280;58630;43.022;25.100;2023-07-13T00:24:11;;;;30.00
70969;BMP280;58630;43.022;25.100;2023-07-13T00:26:41;;;;29.90
70969;BMP280;58630;43.022;25.100;2023-07-13T00:29:10;;;;29.90
70969;BMP280;58630;43.022;25.100;2023-07-13T00:31:35;;;;29.90
70969;BMP280;58630;43.022;25.100;2023-07-13T00:34:02;;;;29.90
70969;BMP280;58630;43.022;25.100;2023-07-13T00:36:27;;;;29.90
70969;BMP280;58630;43.022;25.100;2023-07-13T00:38:53;;;;29.80
70969;BMP280;58630;43.022;25.100;2023-07-13T00:41:18;;;;29.80
70969;BMP280;58630;43.022;25.100;2023-07-13T00:43:44;;;;29.80
70969;BMP280;58630;43.022;25.100;2023-07-13T00:46:15;;;;29.80
70969;BMP280;58630;43.022;25.100;2023-07-13T00:48:40;;;;29.70
70969;BMP280;58630;43.022;25.100;2023-07-13T00:51:06;;;;29.70
70969;BMP280;58630;43.022;25.100;2023-07-13T00:53:31;;;;29.70
70969;BMP280;58630;43.022;25.100;2023-07-13T00:55:58;;;;29.60
70969;BMP280;58630;43.022;25.100;2023-07-13T00:58:24;;;;29.60
70969;BMP280;58630;43.022;25.100;2023-07-13T01:00:50;;;;29.60
70969;BMP280;58630;43.022;25.100;2023-07-13T01:03:16;;;;29.60
70969;BMP280;58630;43.022;25.100;2023-07-13T01:05:41;;;;29.60
70969;BMP280;58630;43.022;25.100;2023-07-13T01:08:07;;;;29.50
70969;BMP280;58630;43.022;25.100;2023-07-13T01:10:34;;;;29.50
70969;BMP280;58630;43.022;25.100;2023-07-13T01:13:05;;;;29.50
70969;BMP280;58630;43.022;25.100;2023-07-13T01:15:41;;;;29.50
70969;BMP280;58630;43.022;25.100;2023-07-13T01:18:11;;;;29.40
70969;BMP280;58630;43.022;25.100;2023-07-13T01:20:37;;;;29.40
70969;BMP280;58630;43.022;25.100;2023-07-13T01:23:05;;;;29.40
70969;BMP280;58630;43.022;25.100;2023-07-13T01:25:31;;;;29.40
70969;BMP280;58630;43.022;25.100;2023-07-13T01:27:57;;;;29.40
70969;BMP280;58630;43.022;25.100;2023-07-13T01:30:22;;;;29.40
70969;BMP280;58630;43.022;25.100;2023-07-13T01:32:48;;;;29.30
70969;BMP280;58630;43.022;25.100;2023-07-13T01:35:13;;;;29.30
70969;BMP280;58630;43.022;25.100;2023-07-13T01:37:39;;;;29.20
70969;BMP280;58630;43.022;25.100;2023-07-13T01:40:05;;;;29.10
70969;BMP280;58630;43.022;25.100;2023-07-13T01:42:30;;;;29.10
70969;BMP280;58630;43.022;25.100;2023-07-13T01:44:56;;;;29.00
70969;BMP280;58630;43.022;25.100;2023-07-13T01:47:22;;;;29.00
70969;BMP280;58630;43.022;25.100;2023-07-13T01:49:48;;;;29.10
70969;BMP280;58630;43.022;25.100;2023-07-13T01:52:13;;;;29.10
70969;BMP280;58630;43.022;25.100;2023-07-13T01:54:39;;;;29.00
70969;BMP280;58630;43.022;25.100;2023-07-13T01:57:04;;;;29.00
70969;BMP280;58630;43.022;25.100;2023-07-13T01:59:30;;;;29.00
70969;BMP280;58630;43.022;25.100;2023-07-13T02:01:56;;;;29.00
70969;BMP280;58630;43.022;25.100;2023-07-13T02:04:21;;;;29.00
70969;BMP280;58630;43.022;25.100;2023-07-13T02:06:47;;;;29.00
70969;BMP280;58630;43.022;25.100;2023-07-13T02:09:12;;;;29.00
70969;BMP280;58630;43.022;25.100;2023-07-13T02:11:38;;;;29.00
70969;BMP280;58630;43.022;25.100;2023-07-13T02:14:03;;;;28.90
70969;BMP280;58630;43.022;25.100;2023-07-13T02:16:29;;;;28.90
70969;BMP280;58630;43.022;25.100;2023-07-13T02:18:55;;;;28.90
70969;BMP280;58630;43.022;25.100;2023-07-13T02:21:21;;;;28.80
70969;BMP280;58630;43.022;25.100;2023-07-13T02:23:47;;;;28.70
70969;BMP280;58630;43.022;25.100;2023-07-13T02:26:12;;;;28.70
70969;BMP280;58630;43.022;25.100;2023-07-13T02:28:38;;;;28.60
70969;BMP280;58630;43.022;25.100;2023-07-13T02:31:10;;;;28.60
70969;BMP280;58630;43.022;25.100;2023-07-13T02:33:36;;;;28.60
70969;BMP280;58630;43.022;25.100;2023-07-13T02:36:02;;;;28.60
70969;BMP280;58630;43.022;25.100;2023-07-13T02:38:28;;;;28.50
70969;BMP280;58630;43.022;25.100;2023-07-13T02:40:54;;;;28.50
70969;BMP280;58630;43.022;25.100;2023-07-13T02:43:19;;;;28.50
70969;BMP280;58630;43.022;25.100;2023-07-13T02:45:45;;;;28.50
70969;BMP280;58630;43.022;25.100;2023-07-13T02:48:13;;;;28.50
70969;BMP280;58630;43.022;25.100;2023-07-13T02:50:39;;;;28.40
70969;BMP280;58630;43.022;25.100;2023-07-13T02:53:04;;;;28.40
70969;BMP280;58630;43.022;25.100;2023-07-13T02:55:30;;;;28.40
70969;BMP280;58630;43.022;25.100;2023-07-13T02:57:55;;;;28.40
70969;BMP280;58630;43.022;25.100;2023-07-13T03:00:22;;;;28.40
70969;BMP280;58630;43.022;25.100;2023-07-13T03:02:48;;;;28.30
70969;BMP280;58630;43.022;25.100;2023-07-13T03:05:13;;;;28.30
70969;BMP280;58630;43.022;25.100;2023-07-13T03:07:40;;;;28.30
70969;BMP280;58630;43.022;25.100;2023-07-13T03:10:05;;;;28.30
70969;BMP280;58630;43.022;25.100;2023-07-13T03:12:32;;;;28.30
70969;BMP280;58630;43.022;25.100;2023-07-13T03:14:57;;;;28.30
70969;BMP280;58630;43.022;25.100;2023-07-13T03:17:23;;;;28.20
70969;BMP280;58630;43.022;25.100;2023-07-13T03:19:48;;;;28.20
70969;BMP280;58630;43.022;25.100;2023-07-13T03:22:17;;;;28.20
70969;BMP280;58630;43.022;25.100;2023-07-13T03:24:43;;;;28.20
70969;BMP280;58630;43.022;25.100;2023-07-13T03:27:09;;;;28.20
70969;BMP280;58630;43.022;25.100;2023-07-13T03:29:34;;;;28.20
70969;BMP280;58630;43.022;25.100;2023-07-13T03:32:00;;;;28.10
70969;BMP280;58630;43.022;25.100;2023-07-13T03:34:26;;;;28.10
70969;BMP280;58630;43.022;25.100;2023-07-13T03:36:53;;;;28.10
70969;BMP280;58630;43.022;25.100;2023-07-13T03:39:19;;;;28.00
70969;BMP280;58630;43.022;25.100;2023-07-13T03:41:44;;;;28.00
70969;BMP280;58630;43.022;25.100;2023-07-13T03:44:11;;;;28.00
70969;BMP280;58630;43.022;25.100;2023-07-13T03:46:36;;;;28.00
70969;BMP280;58630;43.022;25.100;2023-07-13T03:49:03;;;;28.00
70969;BMP280;58630;43.022;25.100;2023-07-13T03:51:29;;;;28.00
70969;BMP280;58630;43.022;25.100;2023-07-13T03:53:55;;;;27.90
70969;BMP280;58630;43.022;25.100;2023-07-13T03:56:20;;;;27.90
70969;BMP280;58630;43.022;25.100;2023-07-13T03:58:47;;;;27.80
70969;BMP280;58630;43.022;25.100;2023-07-13T04:01:13;;;;27.70
70969;BMP280;58630;43.022;25.100;2023-07-13T04:03:38;;;;27.70
70969;BMP280;58630;43.022;25.100;2023-07-13T04:06:05;;;;27.70
70969;BMP280;58630;43.022;25.100;2023-07-13T04:08:31;;;;27.70
70969;BMP280;58630;43.022;25.100;2023-07-13T04:10:57;;;;27.70
70969;BMP280;58630;43.022;25.100;2023-07-13T04:13:24;;;;27.70
70969;BMP280;58630;43.022;25.100;2023-07-13T04:15:50;;;;27.60
70969;BMP280;58630;43.022;25.100;2023-07-13T04:18:15;;;;27.60
70969;BMP280;58630;43.022;25.100;2023-07-13T04:20:41;;;;27.60
70969;BMP280;58630;43.022;25.100;2023-07-13T04:23:07;;;;27.60
70969;BMP280;58630;43.022;25.100;2023-07-13T04:25:33;;;;27.60
70969;BMP280;58630;43.022;25.100;2023-07-13T04:27:58;;;;27.60
70969;BMP280;58630;43.022;25.100;2023-07-13T04:30:24;;;;27.60
70969;BMP280;58630;43.022;25.100;2023-07-13T04:32:50;;;;27.60
70969;BMP280;58630;43.022;25.100;2023-07-13T04:35:17;;;;27.60
70969;BMP280;58630;43.022;25.100;2023-07-13T04:37:43;;;;27.60
70969;BMP280;58630;43.022;25.100;2023-07-13T04:40:09;;;;27.60
70969;BMP280;58630;43.022;25.100;2023-07-13T04:42:37;;;;27.70
70969;BMP280;58630;43.022;25.100;2023-07-13T04:45:04;;;;27.70
70969;BMP280;58630;43.022;25.100;2023-07-13T04:47:30;;;;27.70
70969;BMP280;58630;43.022;25.100;2023-07-13T04:49:56;;;;27.70
70969;BMP280;58630;43.022;25.100;2023-07-13T04:52:23;;;;27.70
70969;BMP280;58630;43.022;25.100;2023-07-13T04:54:48;;;;27.70
70969;BMP280;58630;43.022;25.100;2023-07-13T04:57:14;;;;27.70
70969;BMP280;58630;43.022;25.100;2023-07-13T04:59:39;;;;27.70
70969;BMP280;58630;43.022;25.100;2023-07-13T05:02:05;;;;27.70
70969;BMP280;58630;43.022;25.100;2023-07-13T05:04:31;;;;27.60
70969;BMP280;58630;43.022;25.100;2023-07-13T05:06:56;;;;27.60
70969;BMP280;58630;43.022;25.100;2023-07-13T05:09:22;;;;27.60
70969;BMP280;58630;43.022;25.100;2023-07-13T05:11:48;;;;27.60
70969;BMP280;58630;43.022;25.100;2023-07-13T05:14:13;;;;27.60
70969;BMP280;58630;43.022;25.100;2023-07-13T05:16:39;;;;27.60
70969;BMP280;58630;43.022;25.100;2023-07-13T05:19:04;;;;27.50
70969;BMP280;58630;43.022;25.100;2023-07-13T05:21:30;;;;27.60
70969;BMP280;58630;43.022;25.100;2023-07-13T05:23:55;;;;27.60
70969;BMP280;58630;43.022;25.100;2023-07-13T05:26:21;;;;27.60
70969;BMP280;58630;43.022;25.100;2023-07-13T05:28:47;;;;27.50
70969;BMP280;58630;43.022;25.100;2023-07-13T05:31:12;;;;27.50
70969;BMP280;58630;43.022;25.100;2023-07-13T05:33:38;;;;27.50
70969;BMP280;58630;43.022;25.100;2023-07-13T05:36:04;;;;27.50
70969;BMP280;58630;43.022;25.100;2023-07-13T05:38:29;;;;27.50
70969;BMP280;58630;43.022;25.100;2023-07-13T05:40:55;;;;27.50
70969;BMP280;58630;43.022;25.100;2023-07-13T05:43:21;;;;27.50
70969;BMP280;58630;43.022;25.100;2023-07-13T05:45:47;;;;27.60
70969;BMP280;58630;43.022;25.100;2023-07-13T05:48:13;;;;27.60
70969;BMP280;58630;43.022;25.100;2023-07-13T05:50:39;;;;27.50
70969;BMP280;58630;43.022;25.100;2023-07-13T05:53:04;;;;27.50
70969;BMP280;58630;43.022;25.100;2023-07-13T05:55:30;;;;27.50
70969;BMP280;58630;43.022;25.100;2023-07-13T05:57:55;;;;27.50
70969;BMP280;58630;43.022;25.100;2023-07-13T06:00:23;;;;27.50
70969;BMP280;58630;43.022;25.100;2023-07-13T06:02:49;;;;27.50
70969;BMP280;58630;43.022;25.100;2023-07-13T06:05:15;;;;27.50
70969;BMP280;58630;43.022;25.100;2023-07-13T06:07:41;;;;27.50
70969;BMP280;58630;43.022;25.100;2023-07-13T06:10:07;;;;27.50
70969;BMP280;58630;43.022;25.100;2023-07-13T06:12:32;;;;27.60
70969;BMP280;58630;43.022;25.100;2023-07-13T06:14:58;;;;27.60
70969;BMP280;58630;43.022;25.100;2023-07-13T06:17:23;;;;27.60
70969;BMP280;58630;43.022;25.100;2023-07-13T06:19:49;;;;27.60
70969;BMP280;58630;43.022;25.100;2023-07-13T06:22:14;;;;27.60
70969;BMP280;58630;43.022;25.100;2023-07-13T06:24:40;;;;27.60
70969;BMP280;58630;43.022;25.100;2023-07-13T06:27:06;;;;27.60
70969;BMP280;58630;43.022;25.100;2023-07-13T06:29:31;;;;27.60
70969;BMP280;58630;43.022;25.100;2023-07-13T06:31:57;;;;27.60
70969;BMP280;58630;43.022;25.100;2023-07-13T06:34:23;;;;27.60
70969;BMP280;58630;43.022;25.100;2023-07-13T06:36:48;;;;27.60
70969;BMP280;58630;43.022;25.100;2023-07-13T06:39:14;;;;27.60
70969;BMP280;58630;43.022;25.100;2023-07-13T06:41:39;;;;27.60
70969;BMP280;58630;43.022;25.100;2023-07-13T06:44:05;;;;27.70
70969;BMP280;58630;43.022;25.100;2023-07-13T06:46:31;;;;27.70
70969;BMP280;58630;43.022;25.100;2023-07-13T06:48:57;;;;27.70
70969;BMP280;58630;43.022;25.100;2023-07-13T06:51:23;;;;27.80
70969;BMP280;58630;43.022;25.100;2023-07-13T06:53:48;;;;27.80
70969;BMP280;58630;43.022;25.100;2023-07-13T06:56:15;;;;27.80
70969;BMP280;58630;43.022;25.100;2023-07-13T06:58:40;;;;27.80
70969;BMP280;58630;43.022;25.100;2023-07-13T07:01:06;;;;27.80
70969;BMP280;58630;43.022;25.100;2023-07-13T07:03:32;;;;27.80
70969;BMP280;58630;43.022;25.100;2023-07-13T07:06:18;;;;27.80
70969;BMP280;58630;43.022;25.100;2023-07-13T07:08:44;;;;27.80
70969;BMP280;58630;43.022;25.100;2023-07-13T07:11:14;;;;27.80
70969;BMP280;58630;43.022;25.100;2023-07-13T07:13:40;;;;27.80
70969;BMP280;58630;43.022;25.100;2023-07-13T07:16:05;;;;27.80
70969;BMP280;58630;43.022;25.100;2023-07-13T07:18:32;;;;27.80
70969;BMP280;58630;43.022;25.100;2023-07-13T07:20:57;;;;27.80
70969;BMP280;58630;43.022;25.100;2023-07-13T07:23:23;;;;27.90
70969;BMP280;58630;43.022;25.100;2023-07-13T07:25:48;;;;27.90
70969;BMP280;58630;43.022;25.100;2023-07-13T07:28:15;;;;27.90
70969;BMP280;58630;43.022;25.100;2023-07-13T07:30:46;;;;27.90
70969;BMP280;58630;43.022;25.100;2023-07-13T07:33:12;;;;27.90
70969;BMP280;58630;43.022;25.100;2023-07-13T07:35:37;;;;27.90
70969;BMP280;58630;43.022;25.100;2023-07-13T07:38:03;;;;28.00
70969;BMP280;58630;43.022;25.100;2023-07-13T07:40:29;;;;28.00
70969;BMP280;58630;43.022;25.100;2023-07-13T07:42:54;;;;28.00
70969;BMP280;58630;43.022;25.100;2023-07-13T07:45:20;;;;28.00
70969;BMP280;58630;43.022;25.100;2023-07-13T07:47:46;;;;28.00
70969;BMP280;58630;43.022;25.100;2023-07-13T07:50:11;;;;28.00
70969;BMP280;58630;43.022;25.100;2023-07-13T07:52:37;;;;28.00
70969;BMP280;58630;43.022;25.100;2023-07-13T07:55:03;;;;28.00
70969;BMP280;58630;43.022;25.100;2023-07-13T07:57:29;;;;28.00
70969;BMP280;58630;43.022;25.100;2023-07-13T07:59:55;;;;28.00
70969;BMP280;58630;43.022;25.100;2023-07-13T08:02:20;;;;28.00
70969;BMP280;58630;43.022;25.100;2023-07-13T08:04:46;;;;28.00
70969;BMP280;58630;43.022;25.100;2023-07-13T08:07:11;;;;28.10
70969;BMP280;58630;43.022;25.100;2023-07-13T08:09:37;;;;28.10
70969;BMP280;58630;43.022;25.100;2023-07-13T08:12:02;;;;28.10
70969;BMP280;58630;43.022;25.100;2023-07-13T08:14:28;;;;28.10
70969;BMP280;58630;43.022;25.100;2023-07-13T08:16:53;;;;28.10
70969;BMP280;58630;43.022;25.100;2023-07-13T08:19:19;;;;28.10
70969;BMP280;58630;43.022;25.100;2023-07-13T08:21:44;;;;28.10
70969;BMP280;58630;43.022;25.100;2023-07-13T08:24:10;;;;28.10
70969;BMP280;58630;43.022;25.100;2023-07-13T08:26:36;;;;28.20
70969;BMP280;58630;43.022;25.100;2023-07-13T08:29:02;;;;28.20
70969;BMP280;58630;43.022;25.100;2023-07-13T08:31:28;;;;28.20
70969;BMP280;58630;43.022;25.100;2023-07-13T08:33:54;;;;28.20
70969;BMP280;58630;43.022;25.100;2023-07-13T08:36:19;;;;28.20
70969;BMP280;58630;43.022;25.100;2023-07-13T08:38:45;;;;28.20
70969;BMP280;58630;43.022;25.100;2023-07-13T08:41:12;;;;28.20
70969;BMP280;58630;43.022;25.100;2023-07-13T08:43:38;;;;28.20
70969;BMP280;58630;43.022;25.100;2023-07-13T08:46:13;;;;28.20
70969;BMP280;58630;43.022;25.100;2023-07-13T08:51:35;;;;28.30
70969;BMP280;58630;43.022;25.100;2023-07-13T08:54:03;;;;28.30
70969;BMP280;58630;43.022;25.100;2023-07-13T08:56:30;;;;28.30
70969;BMP280;58630;43.022;25.100;2023-07-13T08:58:57;;;;28.30
70969;BMP280;58630;43.022;25.100;2023-07-13T09:06:30;;;;28.40
70969;BMP280;58630;43.022;25.100;2023-07-13T09:09:04;;;;28.50
70969;BMP280;58630;43.022;25.100;2023-07-13T09:14:13;;;;28.60
70969;BMP280;58630;43.022;25.100;2023-07-13T09:16:45;;;;28.70
70969;BMP280;58630;43.022;25.100;2023-07-13T09:19:14;;;;28.70
70969;BMP280;58630;43.022;25.100;2023-07-13T09:21:42;;;;28.70
70969;BMP280;58630;43.022;25.100;2023-07-13T09:24:27;;;;28.80
70969;BMP280;58630;43.022;25.100;2023-07-13T09:26:54;;;;28.80
70969;BMP280;58630;43.022;25.100;2023-07-13T09:29:29;;;;28.80
70969;BMP280;58630;43.022;25.100;2023-07-13T09:31:59;;;;29.00
70969;BMP280;58630;43.022;25.100;2023-07-13T09:34:25;;;;29.50
70969;BMP280;58630;43.022;25.100;2023-07-13T09:36:51;;;;29.50
70969;BMP280;58630;43.022;25.100;2023-07-13T09:39:27;;;;29.40
70969;BMP280;58630;43.022;25.100;2023-07-13T09:41:58;;;;29.50
70969;BMP280;58630;43.022;25.100;2023-07-13T09:44:30;;;;29.50
70969;BMP280;58630;43.022;25.100;2023-07-13T09:46:56;;;;29.40
70969;BMP280;58630;43.022;25.100;2023-07-13T09:49:26;;;;29.40
70969;BMP280;58630;43.022;25.100;2023-07-13T09:51:57;;;;29.40
70969;BMP280;58630;43.022;25.100;2023-07-13T09:54:24;;;;29.80
70969;BMP280;58630;43.022;25.100;2023-07-13T09:56:59;;;;29.70
70969;BMP280;58630;43.022;25.100;2023-07-13T09:59:29;;;;29.70
70969;BMP280;58630;43.022;25.100;2023-07-13T10:01:55;;;;29.60
70969;BMP280;58630;43.022;25.100;2023-07-13T10:04:26;;;;29.70
70969;BMP280;58630;43.022;25.100;2023-07-13T10:06:52;;;;29.70
70969;BMP280;58630;43.022;25.100;2023-07-13T10:09:29;;;;29.70
70969;BMP280;58630;43.022;25.100;2023-07-13T10:11:55;;;;29.70
70969;BMP280;58630;43.022;25.100;2023-07-13T10:14:21;;;;29.70
70969;BMP280;58630;43.022;25.100;2023-07-13T10:16:52;;;;29.70
70969;BMP280;58630;43.022;25.100;2023-07-13T10:19:26;;;;29.80
70969;BMP280;58630;43.022;25.100;2023-07-13T10:21:54;;;;30.00
70969;BMP280;58630;43.022;25.100;2023-07-13T10:24:24;;;;30.00
70969;BMP280;58630;43.022;25.100;2023-07-13T10:29:35;;;;30.00
70969;BMP280;58630;43.022;25.100;2023-07-13T10:32:03;;;;30.00
70969;BMP280;58630;43.022;25.100;2023-07-13T10:34:28;;;;30.00
70969;BMP280;58630;43.022;25.100;2023-07-13T10:36:54;;;;30.00
70969;BMP280;58630;43.022;25.100;2023-07-13T10:39:26;;;;30.10
70969;BMP280;58630;43.022;25.100;2023-07-13T10:41:53;;;;30.20
70969;BMP280;58630;43.022;25.100;2023-07-13T10:44:21;;;;30.30
70969;BMP280;58630;43.022;25.100;2023-07-13T10:46:51;;;;30.30
70969;BMP280;58630;43.022;25.100;2023-07-13T10:49:16;;;;30.20
70969;BMP280;58630;43.022;25.100;2023-07-13T10:51:42;;;;30.60
70969;BMP280;58630;43.022;25.100;2023-07-13T10:54:18;;;;30.50
70969;BMP280;58630;43.022;25.100;2023-07-13T10:56:44;;;;30.70
70969;BMP280;58630;43.022;25.100;2023-07-13T10:59:12;;;;30.90
70969;BMP280;58630;43.022;25.100;2023-07-13T11:01:45;;;;30.70
70969;BMP280;58630;43.022;25.100;2023-07-13T11:04:12;;;;30.80
70969;BMP280;58630;43.022;25.100;2023-07-13T11:06:38;;;;31.00
70969;BMP280;58630;43.022;25.100;2023-07-13T11:11:44;;;;31.10
70969;BMP280;58630;43.022;25.100;2023-07-13T11:16:59;;;;31.00
70969;BMP280;58630;43.022;25.100;2023-07-13T11:19:44;;;;31.00
70969;BMP280;58630;43.022;25.100;2023-07-13T11:22:16;;;;31.50
70969;BMP280;58630;43.022;25.100;2023-07-13T11:24:48;;;;31.40
70969;BMP280;58630;43.022;25.100;2023-07-13T11:32:33;;;;31.40
70969;BMP280;58630;43.022;25.100;2023-07-13T11:35:00;;;;31.40
70969;BMP280;58630;43.022;25.100;2023-07-13T11:37:25;;;;31.50
70969;BMP280;58630;43.022;25.100;2023-07-13T11:39:51;;;;31.50
70969;BMP280;58630;43.022;25.100;2023-07-13T11:42:18;;;;31.60
70969;BMP280;58630;43.022;25.100;2023-07-13T11:44:48;;;;31.70
70969;BMP280;58630;43.022;25.100;2023-07-13T11:47:17;;;;31.70
70969;BMP280;58630;43.022;25.100;2023-07-13T11:49:44;;;;31.80
70969;BMP280;58630;43.022;25.100;2023-07-13T11:55:04;;;;31.90
70969;BMP280;58630;43.022;25.100;2023-07-13T11:57:42;;;;32.10
70969;BMP280;58630;43.022;25.100;2023-07-13T12:00:14;;;;32.30
70969;BMP280;58630;43.022;25.100;2023-07-13T12:02:42;;;;32.60
70969;BMP280;58630;43.022;25.100;2023-07-13T12:05:11;;;;32.70
70969;BMP280;58630;43.022;25.100;2023-07-13T12:07:38;;;;32.90
70969;BMP280;58630;43.022;25.100;2023-07-13T12:12:52;;;;33.10
70969;BMP280;58630;43.022;25.100;2023-07-13T12:15:18;;;;33.30
70969;BMP280;58630;43.022;25.100;2023-07-13T12:17:43;;;;33.40
70969;BMP280;58630;43.022;25.100;2023-07-13T12:20:27;;;;33.50
70969;BMP280;58630;43.022;25.100;2023-07-13T12:22:54;;;;33.60
70969;BMP280;58630;43.022;25.100;2023-07-13T12:25:20;;;;33.70
70969;BMP280;58630;43.022;25.100;2023-07-13T12:27:50;;;;33.80
70969;BMP280;58630;43.022;25.100;2023-07-13T12:32:57;;;;34.10
70969;BMP280;58630;43.022;25.100;2023-07-13T12:35:23;;;;34.30
70969;BMP280;58630;43.022;25.100;2023-07-13T12:37:50;;;;34.40
70969;BMP280;58630;43.022;25.100;2023-07-13T12:40:16;;;;34.50
70969;BMP280;58630;43.022;25.100;2023-07-13T12:42:45;;;;34.50
70969;BMP280;58630;43.022;25.100;2023-07-13T12:45:15;;;;34.60
70969;BMP280;58630;43.022;25.100;2023-07-13T12:47:43;;;;34.70
70969;BMP280;58630;43.022;25.100;2023-07-13T12:50:15;;;;34.70
70969;BMP280;58630;43.022;25.100;2023-07-13T12:52:41;;;;34.80
70969;BMP280;58630;43.022;25.100;2023-07-13T12:55:16;;;;35.00
70969;BMP280;58630;43.022;25.100;2023-07-13T12:57:53;;;;35.10
70969;BMP280;58630;43.022;25.100;2023-07-13T13:02:45;;;;35.30
70969;BMP280;58630;43.022;25.100;2023-07-13T13:05:12;;;;35.40
70969;BMP280;58630;43.022;25.100;2023-07-13T13:07:39;;;;35.50
70969;BMP280;58630;43.022;25.100;2023-07-13T13:10:14;;;;35.60
70969;BMP280;58630;43.022;25.100;2023-07-13T13:12:39;;;;35.70
70969;BMP280;58630;43.022;25.100;2023-07-13T13:15:08;;;;35.80
70969;BMP280;58630;43.022;25.100;2023-07-13T13:17:33;;;;36.00
70969;BMP280;58630;43.022;25.100;2023-07-13T13:19:59;;;;36.10
70969;BMP280;58630;43.022;25.100;2023-07-13T13:22:25;;;;36.20
70969;BMP280;58630;43.022;25.100;2023-07-13T13:24:50;;;;36.30
70969;BMP280;58630;43.022;25.100;2023-07-13T13:27:16;;;;36.40
70969;BMP280;58630;43.022;25.100;2023-07-13T13:29:43;;;;36.50
70969;BMP280;58630;43.022;25.100;2023-07-13T13:32:11;;;;36.60
70969;BMP280;58630;43.022;25.100;2023-07-13T13:34:37;;;;36.70
70969;BMP280;58630;43.022;25.100;2023-07-13T13:37:02;;;;36.80
70969;BMP280;58630;43.022;25.100;2023-07-13T13:39:33;;;;37.00
70969;BMP280;58630;43.022;25.100;2023-07-13T13:41:59;;;;37.10
70969;BMP280;58630;43.022;25.100;2023-07-13T13:44:25;;;;37.20
70969;BMP280;58630;43.022;25.100;2023-07-13T13:46:51;;;;37.30
70969;BMP280;58630;43.022;25.100;2023-07-13T13:49:17;;;;37.30
70969;BMP280;58630;43.022;25.100;2023-07-13T13:51:43;;;;37.40
70969;BMP280;58630;43.022;25.100;2023-07-13T13:54:13;;;;37.50
70969;BMP280;58630;43.022;25.100;2023-07-13T13:56:41;;;;37.70
70969;BMP280;58630;43.022;25.100;2023-07-13T13:59:06;;;;37.80
70969;BMP280;58630;43.022;25.100;2023-07-13T14:01:34;;;;37.90
70969;BMP280;58630;43.022;25.100;2023-07-13T14:04:00;;;;38.00
70969;BMP280;58630;43.022;25.100;2023-07-13T14:06:25;;;;38.10
70969;BMP280;58630;43.022;25.100;2023-07-13T14:08:51;;;;38.30
70969;BMP280;58630;43.022;25.100;2023-07-13T14:11:17;;;;38.40
70969;BMP280;58630;43.022;25.100;2023-07-13T14:13:54;;;;38.40
70969;BMP280;58630;43.022;25.100;2023-07-13T14:16:21;;;;38.60
70969;BMP280;58630;43.022;25.100;2023-07-13T14:18:48;;;;38.70
70969;BMP280;58630;43.022;25.100;2023-07-13T14:21:14;;;;38.90
70969;BMP280;58630;43.022;25.100;2023-07-13T14:23:40;;;;38.90
70969;BMP280;58630;43.022;25.100;2023-07-13T14:26:28;;;;39.00
70969;BMP280;58630;43.022;25.100;2023-07-13T14:28:53;;;;39.00
70969;BMP280;58630;43.022;25.100;2023-07-13T14:31:20;;;;39.20
70969;BMP280;58630;43.022;25.100;2023-07-13T14:33:46;;;;39.30
70969;BMP280;58630;43.022;25.100;2023-07-13T14:36:29;;;;39.30
70969;BMP280;58630;43.022;25.100;2023-07-13T14:38:56;;;;39.30
70969;BMP280;58630;43.022;25.100;2023-07-13T14:41:22;;;;39.30
70969;BMP280;58630;43.022;25.100;2023-07-13T14:43:48;;;;39.40
70969;BMP280;58630;43.022;25.100;2023-07-13T14:46:32;;;;39.50
70969;BMP280;58630;43.022;25.100;2023-07-13T14:49:02;;;;39.70
70969;BMP280;58630;43.022;25.100;2023-07-13T14:51:29;;;;39.90
70969;BMP280;58630;43.022;25.100;2023-07-13T14:53:55;;;;39.90
70969;BMP280;58630;43.022;25.100;2023-07-13T14:56:20;;;;39.90
70969;BMP280;58630;43.022;25.100;2023-07-13T14:58:46;;;;40.00
70969;BMP280;58630;43.022;25.100;2023-07-13T15:01:12;;;;40.00
70969;BMP280;58630;43.022;25.100;2023-07-13T15:03:43;;;;40.10
70969;BMP280;58630;43.022;25.100;2023-07-13T15:06:10;;;;40.30
70969;BMP280;58630;43.022;25.100;2023-07-13T15:08:36;;;;40.40
70969;BMP280;58630;43.022;25.100;2023-07-13T15:11:03;;;;40.30
70969;BMP280;58630;43.022;25.100;2023-07-13T15:13:30;;;;40.40
70969;BMP280;58630;43.022;25.100;2023-07-13T15:15:56;;;;40.30
70969;BMP280;58630;43.022;25.100;2023-07-13T15:18:22;;;;40.40
70969;BMP280;58630;43.022;25.100;2023-07-13T15:20:49;;;;40.40
70969;BMP280;58630;43.022;25.100;2023-07-13T15:23:15;;;;40.50
70969;BMP280;58630;43.022;25.100;2023-07-13T15:25:42;;;;40.60
70969;BMP280;58630;43.022;25.100;2023-07-13T15:28:08;;;;40.80
70969;BMP280;58630;43.022;25.100;2023-07-13T15:30:44;;;;40.90
70969;BMP280;58630;43.022;25.100;2023-07-13T15:33:11;;;;40.90
70969;BMP280;58630;43.022;25.100;2023-07-13T15:35:37;;;;40.90
70969;BMP280;58630;43.022;25.100;2023-07-13T15:38:12;;;;40.90
70969;BMP280;58630;43.022;25.100;2023-07-13T15:40:38;;;;40.90
70969;BMP280;58630;43.022;25.100;2023-07-13T15:43:09;;;;40.90
70969;BMP280;58630;43.022;25.100;2023-07-13T15:45:35;;;;40.90
70969;BMP280;58630;43.022;25.100;2023-07-13T15:48:01;;;;41.00
70969;BMP280;58630;43.022;25.100;2023-07-13T15:50:29;;;;41.00
70969;BMP280;58630;43.022;25.100;2023-07-13T15:52:58;;;;40.90
70969;BMP280;58630;43.022;25.100;2023-07-13T15:55:23;;;;40.90
70969;BMP280;58630;43.022;25.100;2023-07-13T15:57:52;;;;40.90
70969;BMP280;58630;43.022;25.100;2023-07-13T16:00:24;;;;41.00
70969;BMP280;58630;43.022;25.100;2023-07-13T16:02:50;;;;41.00
70969;BMP280;58630;43.022;25.100;2023-07-13T16:05:16;;;;41.00
70969;BMP280;58630;43.022;25.100;2023-07-13T16:07:43;;;;41.10
70969;BMP280;58630;43.022;25.100;2023-07-13T16:10:12;;;;41.10
70969;BMP280;58630;43.022;25.100;2023-07-13T16:12:39;;;;41.10
70969;BMP280;58630;43.022;25.100;2023-07-13T16:15:04;;;;41.20
70969;BMP280;58630;43.022;25.100;2023-07-13T16:17:34;;;;41.20
70969;BMP280;58630;43.022;25.100;2023-07-13T16:20:00;;;;41.10